createdAt,value
2018-03-04T00:00:57.583Z,81.26
2018-03-04T00:02:07.292Z,81.07
2018-03-04T00:03:16.988Z,81.07
2018-03-04T00:04:26.693Z,81.07
2018-03-04T00:05:36.408Z,80.98
2018-03-04T00:06:46.102Z,81.07
2018-03-04T00:07:56.056Z,80.98
2018-03-04T00:09:06.014Z,81.63
2018-03-04T00:10:15.189Z,81.73
2018-03-04T00:11:25.160Z,81.5
2018-03-04T00:12:35.113Z,81.54
2018-03-04T00:13:44.801Z,81.45
2018-03-04T00:14:54.758Z,81.73
2018-03-04T00:16:04.462Z,81.5
2018-03-04T00:17:14.171Z,81.59
2018-03-04T00:18:24.124Z,81.22
2018-03-04T00:19:33.816Z,81.69
2018-03-04T00:20:43.790Z,81.97
2018-03-04T00:21:53.738Z,81.78
2018-03-04T00:23:03.184Z,82.16
2018-03-04T00:24:12.905Z,82.25
2018-03-04T00:25:22.624Z,82.35
2018-03-04T00:26:32.566Z,82.35
2018-03-04T00:27:42.356Z,82.35
2018-03-04T00:28:52.385Z,82.16
2018-03-04T00:30:02.351Z,82.35
2018-03-04T00:31:12.044Z,82.54
2018-03-04T00:32:21.482Z,82.44
2018-03-04T00:33:30.918Z,82.25
2018-03-04T00:34:40.867Z,82.07
2018-03-04T00:35:50.564Z,82.25
2018-03-04T00:37:00.010Z,82.35
2018-03-04T00:38:09.709Z,82.63
2018-03-04T00:39:19.399Z,82.63
2018-03-04T00:40:29.116Z,82.82
2018-03-04T00:41:38.558Z,82.92
2018-03-04T00:42:48.267Z,82.63
2018-03-04T00:43:57.964Z,83.01
2018-03-04T00:45:07.926Z,83.29
2018-03-04T00:46:17.881Z,83.2
2018-03-04T00:47:27.567Z,83.2
2018-03-04T00:48:37.253Z,83.29
2018-03-04T00:49:47.209Z,83.1
2018-03-04T00:50:57.166Z,83.1
2018-03-04T00:52:07.111Z,83.48
2018-03-04T00:53:16.563Z,83.29
2018-03-04T00:54:26.554Z,83.48
2018-03-04T00:55:36.249Z,83.58
2018-03-04T00:56:45.950Z,83.58
2018-03-04T00:57:56.152Z,83.48
2018-03-04T00:59:06.098Z,83.48
2018-03-04T01:00:15.780Z,83.39
2018-03-04T01:01:25.740Z,83.58
2018-03-04T01:02:35.174Z,83.67
2018-03-04T01:03:45.137Z,83.76
2018-03-04T01:04:55.080Z,83.2
2018-03-04T01:06:04.514Z,84.05
2018-03-04T01:07:14.473Z,84.42
2018-03-04T01:08:23.644Z,84.14
2018-03-04T01:09:33.591Z,84.05
2018-03-04T01:10:43.551Z,84.52
2018-03-04T01:11:53.262Z,85.08
2018-03-04T01:13:02.979Z,85.46
2018-03-04T01:14:12.685Z,85.17
2018-03-04T01:15:22.112Z,84.52
2018-03-04T01:16:31.801Z,85.36
2018-03-04T01:17:41.757Z,84.42
2018-03-04T01:18:50.688Z,84.61
2018-03-04T01:20:00.658Z,84.61
2018-03-04T01:21:10.600Z,84.61
2018-03-04T01:22:20.556Z,84.99
2018-03-04T01:23:30.505Z,85.08
2018-03-04T01:24:39.941Z,85.27
2018-03-04T01:25:49.624Z,85.17
2018-03-04T01:26:59.577Z,85.08
2018-03-04T01:28:09.526Z,85.08
2018-03-04T01:29:18.950Z,85.27
2018-03-04T01:30:28.899Z,85.46
2018-03-04T01:31:38.599Z,86.49
2018-03-04T01:32:48.603Z,86.4
2018-03-04T01:33:58.551Z,85.83
2018-03-04T01:35:08.240Z,86.02
2018-03-04T01:36:18.179Z,85.36
2018-03-04T01:37:27.614Z,85.64
2018-03-04T01:38:37.573Z,85.74
2018-03-04T01:39:47.002Z,86.02
2018-03-04T01:40:56.941Z,85.93
2018-03-04T01:42:06.403Z,85.83
2018-03-04T01:43:16.355Z,85.64
2018-03-04T01:44:26.307Z,85.93
2018-03-04T01:45:36.254Z,85.74
2018-03-04T01:46:45.685Z,86.11
2018-03-04T01:47:55.640Z,86.59
2018-03-04T01:49:05.749Z,86.21
2018-03-04T01:50:15.442Z,86.59
2018-03-04T01:51:25.391Z,86.4
2018-03-04T01:52:34.822Z,86.4
2018-03-04T01:53:44.524Z,86.11
2018-03-04T01:54:54.473Z,86.3
2018-03-04T01:56:03.899Z,86.4
2018-03-04T01:57:13.326Z,86.49
2018-03-04T01:58:23.028Z,87.06
2018-03-04T01:59:32.449Z,86.4
2018-03-04T02:00:42.144Z,86.49
2018-03-04T02:01:52.088Z,86.59
2018-03-04T02:03:01.776Z,86.87
2018-03-04T02:04:10.691Z,86.4
2018-03-04T02:05:20.387Z,86.21
2018-03-04T02:06:30.074Z,86.3
2018-03-04T02:07:39.753Z,86.4
2018-03-04T02:08:49.180Z,86.3
2018-03-04T02:09:58.608Z,86.96
2018-03-04T02:11:08.555Z,87.06
2018-03-04T02:12:18.262Z,86.96
2018-03-04T02:13:27.691Z,86.68
2018-03-04T02:14:37.393Z,86.59
2018-03-04T02:15:47.334Z,87.15
2018-03-04T02:16:57.041Z,86.87
2018-03-04T02:18:07.030Z,86.96
2018-03-04T02:19:16.720Z,87.06
2018-03-04T02:20:26.666Z,87.34
2018-03-04T02:21:35.843Z,87.34
2018-03-04T02:22:46.039Z,88.28
2018-03-04T02:23:55.531Z,87.25
2018-03-04T02:25:04.971Z,87.34
2018-03-04T02:26:14.672Z,87.06
2018-03-04T02:27:24.616Z,87.44
2018-03-04T02:28:34.565Z,87.53
2018-03-04T02:29:44.506Z,87.25
2018-03-04T02:30:54.524Z,87.06
2018-03-04T02:32:03.953Z,87.25
2018-03-04T02:33:13.655Z,87.44
2018-03-04T02:34:23.628Z,87.25
2018-03-04T02:35:33.330Z,87.06
2018-03-04T02:36:43.024Z,87.44
2018-03-04T02:37:52.713Z,87.34
2018-03-04T02:39:02.699Z,87.25
2018-03-04T02:40:12.913Z,87.34
2018-03-04T02:41:22.869Z,87.25
2018-03-04T02:42:32.564Z,87.44
2018-03-04T02:43:42.547Z,87.34
2018-03-04T02:44:52.236Z,87.91
2018-03-04T02:46:02.183Z,87.81
2018-03-04T02:47:11.884Z,87.91
2018-03-04T02:48:21.651Z,87.25
2018-03-04T02:49:31.628Z,87.91
2018-03-04T02:50:41.595Z,87.81
2018-03-04T02:51:51.856Z,87.81
2018-03-04T02:53:01.833Z,88.1
2018-03-04T02:54:11.556Z,88.38
2018-03-04T02:55:21.265Z,87.91
2018-03-04T02:56:31.232Z,87.62
2018-03-04T02:57:40.934Z,87.72
2018-03-04T02:58:50.652Z,87.91
2018-03-04T03:00:00.351Z,87.91
2018-03-04T03:01:10.082Z,87.91
2018-03-04T03:02:19.517Z,87.62
2018-03-04T03:03:28.955Z,87.53
2018-03-04T03:04:38.936Z,87.53
2018-03-04T03:05:48.638Z,87.81
2018-03-04T03:06:58.346Z,87.91
2018-03-04T03:08:08.045Z,88.76
2018-03-04T03:09:18.001Z,88.66
2018-03-04T03:10:27.688Z,88.28
2018-03-04T03:11:37.636Z,88.1
2018-03-04T03:12:47.360Z,88.19
2018-03-04T03:13:57.306Z,88.38
2018-03-04T03:15:06.994Z,88.95
2018-03-04T03:16:17.019Z,88.85
2018-03-04T03:17:26.181Z,88.95
2018-03-04T03:18:35.601Z,88.95
2018-03-04T03:19:45.550Z,88.85
2018-03-04T03:20:55.496Z,88.47
2018-03-04T03:22:05.243Z,88.95
2018-03-04T03:23:14.949Z,88.38
2018-03-04T03:24:24.649Z,88.38
2018-03-04T03:25:34.349Z,88.85
2018-03-04T03:26:44.037Z,88.76
2018-03-04T03:27:53.983Z,88.66
2018-03-04T03:29:03.955Z,88.19
2018-03-04T03:30:13.650Z,88.76
2018-03-04T03:31:23.344Z,88.57
2018-03-04T03:32:33.046Z,88.66
2018-03-04T03:33:42.474Z,88.57
2018-03-04T03:34:52.164Z,88.57
2018-03-04T03:36:01.593Z,88.76
2018-03-04T03:37:11.285Z,88.85
2018-03-04T03:38:21.387Z,88.57
2018-03-04T03:39:31.084Z,88.57
2018-03-04T03:40:40.775Z,88.38
2018-03-04T03:41:49.951Z,88.66
2018-03-04T03:42:59.891Z,88.66
2018-03-04T03:44:09.062Z,88.57
2018-03-04T03:45:18.760Z,89.04
2018-03-04T03:46:28.238Z,88.95
2018-03-04T03:47:37.927Z,89.23
2018-03-04T03:48:47.880Z,89.61
2018-03-04T03:49:57.571Z,89.42
2018-03-04T03:51:07.260Z,89.23
2018-03-04T03:52:16.945Z,89.32
2018-03-04T03:53:26.894Z,89.61
2018-03-04T03:54:36.587Z,89.89
2018-03-04T03:55:46.794Z,89.04
2018-03-04T03:56:56.482Z,89.13
2018-03-04T03:58:06.661Z,88.85
2018-03-04T03:59:16.345Z,88.85
2018-03-04T04:00:26.031Z,89.42
2018-03-04T04:01:35.979Z,89.98
2018-03-04T04:02:45.929Z,89.7
2018-03-04T04:03:55.890Z,90.08
2018-03-04T04:05:05.833Z,89.32
2018-03-04T04:06:16.045Z,89.79
2018-03-04T04:07:25.990Z,89.79
2018-03-04T04:08:35.939Z,89.61
2018-03-04T04:09:45.627Z,89.61
2018-03-04T04:10:55.326Z,90.08
2018-03-04T04:12:05.023Z,89.89
2018-03-04T04:13:14.451Z,89.7
2018-03-04T04:14:24.145Z,90.08
2018-03-04T04:15:34.094Z,89.7
2018-03-04T04:16:43.765Z,90.08
2018-03-04T04:17:52.944Z,89.61
2018-03-04T04:19:02.626Z,89.61
2018-03-04T04:20:12.386Z,89.61
2018-03-04T04:21:22.329Z,89.7
2018-03-04T04:22:32.329Z,89.13
2018-03-04T04:23:42.284Z,89.04
2018-03-04T04:24:51.972Z,89.23
2018-03-04T04:26:01.396Z,89.13
2018-03-04T04:27:10.842Z,89.04
2018-03-04T04:28:20.784Z,89.79
2018-03-04T04:29:30.732Z,89.61
2018-03-04T04:30:40.677Z,89.61
2018-03-04T04:31:50.773Z,89.79
2018-03-04T04:33:00.724Z,89.61
2018-03-04T04:34:10.721Z,89.89
2018-03-04T04:35:20.681Z,89.7
2018-03-04T04:36:30.623Z,90.08
2018-03-04T04:37:40.568Z,89.23
2018-03-04T04:38:50.509Z,89.23
2018-03-04T04:40:00.456Z,89.23
2018-03-04T04:41:10.417Z,89.04
2018-03-04T04:42:20.100Z,89.13
2018-03-04T04:43:29.531Z,89.04
2018-03-04T04:44:39.238Z,88.76
2018-03-04T04:45:48.672Z,89.09
2018-03-04T04:46:58.372Z,89.13
2018-03-04T04:48:08.571Z,89.13
2018-03-04T04:49:18.520Z,89.23
2018-03-04T04:50:28.227Z,88.76
2018-03-04T04:51:38.171Z,89.04
2018-03-04T04:52:47.863Z,88.95
2018-03-04T04:53:57.382Z,88.76
2018-03-04T04:55:07.339Z,88.76
2018-03-04T04:56:17.038Z,89.23
2018-03-04T04:57:26.477Z,88.95
2018-03-04T04:58:36.670Z,89.42
2018-03-04T04:59:46.615Z,89.42
2018-03-04T05:00:55.535Z,89.13
2018-03-04T05:02:05.229Z,89.61
2018-03-04T05:03:14.922Z,89.61
2018-03-04T05:04:24.611Z,89.32
2018-03-04T05:05:34.551Z,89.79
2018-03-04T05:06:43.992Z,89.61
2018-03-04T05:07:53.935Z,89.79
2018-03-04T05:09:03.616Z,89.56
2018-03-04T05:10:13.308Z,89.42
2018-03-04T05:11:22.996Z,89.79
2018-03-04T05:12:32.690Z,89.7
2018-03-04T05:13:42.372Z,89.7
2018-03-04T05:14:52.061Z,89.37
2018-03-04T05:16:01.759Z,89.65
2018-03-04T05:17:11.442Z,90.03
2018-03-04T05:18:21.134Z,90.08
2018-03-04T05:19:30.567Z,90.03
2018-03-04T05:20:39.737Z,89.84
2018-03-04T05:21:49.160Z,90.36
2018-03-04T05:22:59.104Z,90.03
2018-03-04T05:24:09.063Z,89.94
2018-03-04T05:25:18.777Z,90.12
2018-03-04T05:26:28.197Z,90.03
2018-03-04T05:27:37.884Z,90.22
2018-03-04T05:28:47.564Z,90.03
2018-03-04T05:29:57.512Z,90.12
2018-03-04T05:31:07.198Z,90.69
2018-03-04T05:32:16.620Z,90.5
2018-03-04T05:33:26.302Z,90.59
2018-03-04T05:34:35.989Z,90.5
2018-03-04T05:35:46.163Z,90.5
2018-03-04T05:36:56.113Z,90.41
2018-03-04T05:38:05.551Z,90.41
2018-03-04T05:39:15.487Z,90.69
2018-03-04T05:40:25.190Z,90.59
2018-03-04T05:41:35.395Z,90.31
2018-03-04T05:42:45.078Z,90.22
2018-03-04T05:43:55.024Z,90.41
2018-03-04T05:45:04.972Z,90.12
2018-03-04T05:46:14.935Z,90.88
2018-03-04T05:47:24.628Z,90.88
2018-03-04T05:48:33.805Z,90.78
2018-03-04T05:49:43.757Z,90.59
2018-03-04T05:50:53.442Z,90.97
2018-03-04T05:52:03.136Z,90.5
2018-03-04T05:53:12.817Z,90.69
2018-03-04T05:54:22.760Z,91.16
2018-03-04T05:55:32.706Z,91.25
2018-03-04T05:56:42.151Z,91.35
2018-03-04T05:57:51.839Z,91.35
2018-03-04T05:59:01.789Z,91.25
2018-03-04T06:00:11.214Z,91.44
2018-03-04T06:01:20.637Z,91.44
2018-03-04T06:02:30.085Z,91.06
2018-03-04T06:03:39.784Z,91.53
2018-03-04T06:04:49.724Z,91.25
2018-03-04T06:05:58.896Z,91.35
2018-03-04T06:07:09.084Z,91.82
2018-03-04T06:08:18.785Z,91.72
2018-03-04T06:09:28.733Z,91.63
2018-03-04T06:10:38.423Z,91.72
2018-03-04T06:11:48.384Z,91.91
2018-03-04T06:12:58.351Z,91.25
2018-03-04T06:14:07.775Z,91.72
2018-03-04T06:15:17.724Z,92.1
2018-03-04T06:16:27.416Z,92.29
2018-03-04T06:17:36.851Z,92.19
2018-03-04T06:18:46.822Z,91.91
2018-03-04T06:19:56.527Z,92.1
2018-03-04T06:21:06.485Z,91.53
2018-03-04T06:22:16.169Z,91.63
2018-03-04T06:23:26.121Z,91.63
2018-03-04T06:24:36.069Z,91.63
2018-03-04T06:25:46.147Z,91.63
2018-03-04T06:26:55.336Z,91.63
2018-03-04T06:28:05.283Z,91.06
2018-03-04T06:29:15.238Z,91.53
2018-03-04T06:30:25.194Z,91.35
2018-03-04T06:31:34.885Z,91.35
2018-03-04T06:32:44.851Z,91.25
2018-03-04T06:33:54.273Z,90.88
2018-03-04T06:35:04.232Z,90.88
2018-03-04T06:36:13.656Z,90.88
2018-03-04T06:37:22.822Z,91.44
2018-03-04T06:38:32.269Z,90.78
2018-03-04T06:39:41.958Z,90.64
2018-03-04T06:40:51.644Z,90.55
2018-03-04T06:42:01.343Z,90.26
2018-03-04T06:43:11.330Z,89.98
2018-03-04T06:44:21.387Z,90.08
2018-03-04T06:45:31.337Z,89.7
2018-03-04T06:46:41.291Z,89.79
2018-03-04T06:47:51.035Z,89.79
2018-03-04T06:49:00.486Z,89.79
2018-03-04T06:50:10.186Z,89.7
2018-03-04T06:51:20.152Z,89.7
2018-03-04T06:52:29.577Z,89.89
2018-03-04T06:53:39.533Z,89.7
2018-03-04T06:54:49.479Z,90.17
2018-03-04T06:55:58.912Z,89.79
2018-03-04T06:57:08.608Z,89.61
2018-03-04T06:58:18.595Z,89.04
2018-03-04T06:59:28.281Z,88.85
2018-03-04T07:00:37.965Z,88.76
2018-03-04T07:01:47.655Z,88.85
2018-03-04T07:02:57.336Z,88.95
2018-03-04T07:04:07.069Z,88.66
2018-03-04T07:05:17.042Z,88.57
2018-03-04T07:06:26.467Z,88.19
2018-03-04T07:07:36.420Z,88.19
2018-03-04T07:08:46.139Z,88
2018-03-04T07:09:55.587Z,87.72
2018-03-04T07:11:04.761Z,88
2018-03-04T07:12:14.449Z,87.53
2018-03-04T07:13:24.414Z,87.34
2018-03-04T07:14:34.109Z,86.96
2018-03-04T07:15:43.550Z,87.25
2018-03-04T07:16:53.292Z,87.25
2018-03-04T07:18:03.150Z,87.06
2018-03-04T07:19:12.851Z,86.3
2018-03-04T07:20:22.292Z,85.93
2018-03-04T07:21:31.980Z,85.83
2018-03-04T07:22:41.941Z,85.36
2018-03-04T07:23:51.375Z,85.46
2018-03-04T07:25:01.060Z,85.27
2018-03-04T07:26:10.999Z,85.36
2018-03-04T07:27:20.960Z,84.89
2018-03-04T07:28:30.930Z,84.7
2018-03-04T07:29:40.702Z,84.33
2018-03-04T07:30:49.910Z,84.52
2018-03-04T07:31:59.878Z,83.95
2018-03-04T07:33:09.575Z,84.7
2018-03-04T07:34:19.556Z,84.14
2018-03-04T07:35:29.524Z,83.58
2018-03-04T07:36:39.220Z,83.39
2018-03-04T07:37:49.176Z,83.39
2018-03-04T07:38:59.140Z,83.29
2018-03-04T07:40:08.824Z,83.1
2018-03-04T07:41:18.521Z,82.63
2018-03-04T07:42:28.482Z,82.16
2018-03-04T07:43:38.448Z,82.63
2018-03-04T07:44:48.194Z,82.63
2018-03-04T07:45:58.148Z,82.39
2018-03-04T07:47:07.841Z,82.2
2018-03-04T07:48:17.821Z,81.92
2018-03-04T07:49:27.510Z,81.26
2018-03-04T07:50:37.203Z,81.54
2018-03-04T07:51:47.164Z,81.26
2018-03-04T07:52:57.100Z,81.07
2018-03-04T07:54:07.038Z,81.07
2018-03-04T07:55:17.010Z,80.79
2018-03-04T07:56:26.980Z,80.41
2018-03-04T07:57:36.672Z,79.75
2018-03-04T07:58:46.363Z,79.28
2018-03-04T07:59:56.058Z,79.28
2018-03-04T08:01:06.016Z,79
2018-03-04T08:02:15.960Z,79.19
2018-03-04T08:03:25.660Z,78.52
2018-03-04T08:04:35.634Z,77.77
2018-03-04T08:05:44.805Z,78.05
2018-03-04T08:06:54.765Z,77.39
2018-03-04T08:08:04.727Z,77.3
2018-03-04T08:09:14.711Z,77.11
2018-03-04T08:10:23.903Z,77.2
2018-03-04T08:11:33.867Z,77.15
2018-03-04T08:12:43.598Z,76.87
2018-03-04T08:13:53.317Z,76.21
2018-03-04T08:15:03.289Z,75.73
2018-03-04T08:16:13.242Z,75.36
2018-03-04T08:17:22.942Z,75.17
2018-03-04T08:18:32.465Z,75.07
2018-03-04T08:19:41.916Z,74.6
2018-03-04T08:20:51.626Z,74.79
2018-03-04T08:22:01.589Z,74.6
2018-03-04T08:23:11.089Z,74.79
2018-03-04T08:24:20.524Z,74.6
2018-03-04T08:25:30.541Z,74.22
2018-03-04T08:26:40.506Z,73.66
2018-03-04T08:27:50.217Z,73.1
2018-03-04T08:29:00.180Z,71.96
2018-03-04T08:30:09.614Z,71.53
2018-03-04T08:31:19.324Z,71.15
2018-03-04T08:32:28.756Z,70.58
2018-03-04T08:33:38.460Z,69.73
2018-03-04T08:34:48.440Z,69.73
2018-03-04T08:35:58.169Z,69.17
2018-03-04T08:37:08.161Z,69.17
2018-03-04T08:38:17.857Z,69.35
2018-03-04T08:39:27.566Z,69.26
2018-03-04T08:40:37.064Z,68.23
2018-03-04T08:41:46.516Z,69.17
2018-03-04T08:42:56.474Z,67.94
2018-03-04T08:44:06.449Z,67.47
2018-03-04T08:45:16.152Z,67.57
2018-03-04T08:46:26.124Z,67.38
2018-03-04T08:47:36.089Z,67.57
2018-03-04T08:48:46.048Z,67.19
2018-03-04T08:49:55.752Z,66.84
2018-03-04T08:51:05.722Z,66.56
2018-03-04T08:52:15.679Z,66.28
2018-03-04T08:53:25.377Z,65.71
2018-03-04T08:54:35.332Z,65.33
2018-03-04T08:55:45.035Z,65.05
2018-03-04T08:56:54.742Z,65.52
2018-03-04T08:58:04.450Z,65.33
2018-03-04T08:59:14.633Z,64.95
2018-03-04T09:00:24.585Z,64.76
2018-03-04T09:01:34.574Z,64.01
2018-03-04T09:02:44.271Z,63.73
2018-03-04T09:03:54.249Z,63.45
2018-03-04T09:05:04.283Z,62.97
2018-03-04T09:06:13.985Z,62.34
2018-03-04T09:07:23.703Z,62.34
2018-03-04T09:08:33.399Z,62.06
2018-03-04T09:09:42.635Z,63.19
2018-03-04T09:10:52.339Z,63.1
2018-03-04T09:12:02.300Z,62.34
2018-03-04T09:13:12.270Z,61.77
2018-03-04T09:14:22.248Z,61.4
2018-03-04T09:15:31.949Z,60.83
2018-03-04T09:16:41.929Z,60.93
2018-03-04T09:17:51.914Z,60.64
2018-03-04T09:19:01.695Z,60.46
2018-03-04T09:20:11.389Z,60.46
2018-03-04T09:21:21.362Z,60.08
2018-03-04T09:22:31.074Z,60.74
2018-03-04T09:23:40.772Z,60.89
2018-03-04T09:24:50.749Z,61.36
2018-03-04T09:26:00.451Z,61.21
2018-03-04T09:27:10.419Z,61.74
2018-03-04T09:28:20.383Z,61.77
2018-03-04T09:29:30.215Z,61.49
2018-03-04T09:30:39.655Z,61.02
2018-03-04T09:31:49.128Z,61.21
2018-03-04T09:32:59.103Z,61.02
2018-03-04T09:34:09.178Z,60.93
2018-03-04T09:35:19.207Z,61.49
2018-03-04T09:36:29.174Z,61.3
2018-03-04T09:37:38.876Z,61.58
2018-03-04T09:38:48.846Z,61.02
2018-03-04T09:39:58.797Z,60.93
2018-03-04T09:41:08.767Z,60.83
2018-03-04T09:42:18.742Z,59.98
2018-03-04T09:43:28.707Z,59.51
2018-03-04T09:44:38.701Z,59.7
2018-03-04T09:45:48.413Z,59.6
2018-03-04T09:46:58.390Z,59.41
2018-03-04T09:48:08.351Z,59.79
2018-03-04T09:49:18.381Z,59.7
2018-03-04T09:50:27.841Z,59.89
2018-03-04T09:51:37.798Z,60.08
2018-03-04T09:52:47.501Z,60.27
2018-03-04T09:53:57.203Z,59.51
2018-03-04T09:55:07.172Z,59.51
2018-03-04T09:56:16.618Z,58.87
2018-03-04T09:57:26.321Z,59.16
2018-03-04T09:58:36.052Z,58.31
2018-03-04T09:59:45.760Z,57.84
2018-03-04T10:00:55.203Z,57.37
2018-03-04T10:02:04.651Z,57.37
2018-03-04T10:03:14.520Z,57.27
2018-03-04T10:04:24.500Z,56.99
2018-03-04T10:05:34.481Z,56.16
2018-03-04T10:06:43.697Z,56.16
2018-03-04T10:07:53.680Z,56.26
2018-03-04T10:09:03.651Z,55.98
2018-03-04T10:10:13.359Z,55.79
2018-03-04T10:11:22.822Z,55.98
2018-03-04T10:12:32.780Z,55.98
2018-03-04T10:13:42.737Z,55.6
2018-03-04T10:14:52.259Z,55.6
2018-03-04T10:16:01.725Z,55.5
2018-03-04T10:17:11.457Z,56.35
2018-03-04T10:18:21.187Z,56.07
2018-03-04T10:19:31.147Z,54.93
2018-03-04T10:20:41.141Z,54.93
2018-03-04T10:21:51.116Z,54.46
2018-03-04T10:23:01.098Z,54.55
2018-03-04T10:24:10.800Z,55.41
2018-03-04T10:25:20.509Z,55.69
2018-03-04T10:26:30.224Z,55.98
2018-03-04T10:27:39.940Z,55.79
2018-03-04T10:28:49.919Z,55.31
2018-03-04T10:29:59.384Z,55.31
2018-03-04T10:31:09.355Z,55.22
2018-03-04T10:32:19.315Z,55.03
2018-03-04T10:33:29.293Z,54.58
2018-03-04T10:34:38.989Z,54.11
2018-03-04T10:35:48.970Z,53.36
2018-03-04T10:36:58.956Z,53.26
2018-03-04T10:38:08.937Z,53.07
2018-03-04T10:39:18.929Z,52.25
2018-03-04T10:40:28.904Z,51.77
2018-03-04T10:41:38.897Z,51.01
2018-03-04T10:42:48.864Z,50.82
2018-03-04T10:43:58.857Z,50.54
2018-03-04T10:45:08.829Z,51.01
2018-03-04T10:46:18.278Z,50.92
2018-03-04T10:47:28.247Z,51.11
2018-03-04T10:48:37.695Z,51.01
2018-03-04T10:49:46.903Z,50.26
2018-03-04T10:50:56.620Z,50.54
2018-03-04T10:52:06.339Z,49.62
2018-03-04T10:53:16.042Z,49.52
2018-03-04T10:54:26.041Z,48.68
2018-03-04T10:55:36.005Z,48.29
2018-03-04T10:56:45.722Z,48.58
2018-03-04T10:57:55.441Z,48.22
2018-03-04T10:59:04.792Z,47.37
2018-03-04T11:00:14.247Z,47.09
2018-03-04T11:01:23.948Z,47.09
2018-03-04T11:02:33.910Z,47.72
2018-03-04T11:03:43.627Z,47.66
2018-03-04T11:04:53.081Z,48.13
2018-03-04T11:06:03.074Z,47.56
2018-03-04T11:07:12.798Z,46.33
2018-03-04T11:08:22.790Z,45.88
2018-03-04T11:09:32.755Z,45.31
2018-03-04T11:10:42.844Z,45.4
2018-03-04T11:11:52.843Z,45.78
2018-03-04T11:13:02.287Z,45.5
2018-03-04T11:14:12.013Z,45.5
2018-03-04T11:15:22.084Z,46.04
2018-03-04T11:16:31.976Z,45.38
2018-03-04T11:17:41.949Z,45.5
2018-03-04T11:18:51.907Z,45.69
2018-03-04T11:20:01.642Z,45.31
2018-03-04T11:21:11.372Z,45.03
2018-03-04T11:22:20.563Z,44.65
2018-03-04T11:23:30.561Z,45.12
2018-03-04T11:24:40.278Z,45.38
2018-03-04T11:25:50.247Z,45.76
2018-03-04T11:26:59.977Z,46.14
2018-03-04T11:28:09.440Z,46.33
2018-03-04T11:29:18.642Z,47.18
2018-03-04T11:30:28.614Z,47.66
2018-03-04T11:31:38.072Z,46.8
2018-03-04T11:32:47.789Z,47.28
2018-03-04T11:33:57.848Z,46.14
2018-03-04T11:35:07.675Z,45.97
2018-03-04T11:36:17.401Z,45.4
2018-03-04T11:37:27.378Z,44.84
2018-03-04T11:38:37.105Z,44.55
2018-03-04T11:39:46.836Z,44.65
2018-03-04T11:40:56.300Z,45.21
2018-03-04T11:42:06.269Z,45.21
2018-03-04T11:43:16.244Z,45.29
2018-03-04T11:44:25.688Z,45.76
2018-03-04T11:45:35.391Z,45.86
2018-03-04T11:46:45.355Z,45.38
2018-03-04T11:47:55.340Z,45.95
2018-03-04T11:49:05.340Z,45.31
2018-03-04T11:50:14.542Z,45.5
2018-03-04T11:51:24.258Z,45.21
2018-03-04T11:52:34.265Z,45.03
2018-03-04T11:53:43.725Z,45.38
2018-03-04T11:54:53.736Z,46.04
2018-03-04T11:56:03.460Z,45.86
2018-03-04T11:57:13.424Z,46.33
2018-03-04T11:58:22.893Z,46.14
2018-03-04T11:59:32.877Z,46.23
2018-03-04T12:00:42.852Z,46.52
2018-03-04T12:01:52.309Z,46.42
2018-03-04T12:03:02.275Z,46.04
2018-03-04T12:04:11.733Z,46.07
2018-03-04T12:05:21.187Z,45.4
2018-03-04T12:06:31.156Z,45.4
2018-03-04T12:07:40.889Z,46.07
2018-03-04T12:08:50.602Z,45.4
2018-03-04T12:10:00.322Z,45.21
2018-03-04T12:11:10.036Z,45.31
2018-03-04T12:12:20.281Z,44.84
2018-03-04T12:13:29.982Z,45.12
2018-03-04T12:14:40.121Z,45.21
2018-03-04T12:15:50.127Z,45.4
2018-03-04T12:17:00.113Z,45.24
2018-03-04T12:18:09.856Z,44.48
2018-03-04T12:19:20.009Z,44.29
2018-03-04T12:20:30.006Z,43.91
2018-03-04T12:21:39.727Z,44.67
2018-03-04T12:22:49.452Z,44.84
2018-03-04T12:23:58.934Z,45.12
2018-03-04T12:25:08.798Z,44.93
2018-03-04T12:26:18.783Z,44.93
2018-03-04T12:27:28.765Z,45.59
2018-03-04T12:28:38.733Z,45.31
2018-03-04T12:29:48.517Z,45.03
2018-03-04T12:30:58.079Z,45.24
2018-03-04T12:32:07.572Z,44.38
2018-03-04T12:33:17.316Z,44.57
2018-03-04T12:34:27.047Z,44.85
2018-03-04T12:35:36.775Z,44.29
2018-03-04T12:36:46.621Z,43.62
2018-03-04T12:37:56.289Z,43.17
2018-03-04T12:39:05.499Z,43.43
2018-03-04T12:40:15.497Z,43.53
2018-03-04T12:41:25.462Z,43.24
2018-03-04T12:42:35.175Z,43.91
2018-03-04T12:43:44.887Z,43.82
2018-03-04T12:44:54.848Z,43.08
2018-03-04T12:46:04.593Z,43.74
2018-03-04T12:47:14.547Z,42.98
2018-03-04T12:48:24.518Z,42.7
2018-03-04T12:49:33.988Z,41.86
2018-03-04T12:50:43.710Z,41.94
2018-03-04T12:51:53.735Z,42.03
2018-03-04T12:53:03.201Z,41.94
2018-03-04T12:54:13.189Z,42.13
2018-03-04T12:55:23.204Z,42.03
2018-03-04T12:56:33.304Z,41.86
2018-03-04T12:57:43.031Z,41.3
2018-03-04T12:58:53.199Z,41.11
2018-03-04T13:00:02.931Z,40.65
2018-03-04T13:01:12.683Z,40.08
2018-03-04T13:02:22.786Z,39.89
2018-03-04T13:03:32.755Z,40.17
2018-03-04T13:04:42.206Z,40.53
2018-03-04T13:05:51.934Z,40.82
2018-03-04T13:07:01.669Z,41.58
2018-03-04T13:08:11.638Z,41.2
2018-03-04T13:09:21.614Z,41.85
2018-03-04T13:10:31.615Z,42.51
2018-03-04T13:11:41.591Z,42.22
2018-03-04T13:12:51.586Z,42.13
2018-03-04T13:14:01.573Z,42.03
2018-03-04T13:15:11.031Z,42.13
2018-03-04T13:16:21.012Z,42.05
2018-03-04T13:17:30.738Z,41.58
2018-03-04T13:18:40.451Z,41.3
2018-03-04T13:19:49.911Z,40.63
2018-03-04T13:20:59.628Z,40.25
2018-03-04T13:22:09.596Z,40.34
2018-03-04T13:23:19.625Z,40.63
2018-03-04T13:24:29.601Z,40.34
2018-03-04T13:25:39.568Z,40.27
2018-03-04T13:26:49.023Z,40.46
2018-03-04T13:27:58.731Z,39.89
2018-03-04T13:29:08.703Z,39.98
2018-03-04T13:30:18.701Z,40.08
2018-03-04T13:31:27.892Z,40.17
2018-03-04T13:32:37.875Z,39.89
2018-03-04T13:33:47.596Z,39.89
2018-03-04T13:34:57.615Z,39.79
2018-03-04T13:36:07.348Z,39.98
2018-03-04T13:37:17.475Z,40.17
2018-03-04T13:38:27.462Z,41.2
2018-03-04T13:39:37.195Z,41.86
2018-03-04T13:40:46.387Z,42.6
2018-03-04T13:41:55.858Z,43.17
2018-03-04T13:43:05.602Z,43.17
2018-03-04T13:44:15.597Z,43.27
2018-03-04T13:45:25.049Z,43.65
2018-03-04T13:46:34.812Z,43.27
2018-03-04T13:47:44.598Z,43.27
2018-03-04T13:48:54.578Z,43.36
2018-03-04T13:50:04.043Z,42.89
2018-03-04T13:51:14.027Z,42.89
2018-03-04T13:52:23.750Z,43.27
2018-03-04T13:53:33.731Z,43.17
2018-03-04T13:54:43.693Z,43.27
2018-03-04T13:55:53.667Z,43.17
2018-03-04T13:57:03.649Z,43.55
2018-03-04T13:58:13.631Z,43.17
2018-03-04T13:59:23.332Z,43.27
2018-03-04T14:00:33.352Z,43.46
2018-03-04T14:01:43.084Z,43.36
2018-03-04T14:02:53.089Z,43.17
2018-03-04T14:04:02.823Z,43.27
2018-03-04T14:05:12.557Z,43.08
2018-03-04T14:06:22.279Z,43.46
2018-03-04T14:07:32.001Z,43.65
2018-03-04T14:08:41.975Z,43.46
2018-03-04T14:09:51.686Z,43.17
2018-03-04T14:11:01.144Z,43.46
2018-03-04T14:12:11.156Z,43.74
2018-03-04T14:13:20.610Z,43.46
2018-03-04T14:14:30.594Z,43.27
2018-03-04T14:15:40.570Z,42.89
2018-03-04T14:16:50.288Z,43.27
2018-03-04T14:18:00.246Z,43.27
2018-03-04T14:19:09.732Z,43.36
2018-03-04T14:20:19.719Z,42.6
2018-03-04T14:21:29.490Z,42.41
2018-03-04T14:22:38.696Z,42.7
2018-03-04T14:23:48.707Z,42.89
2018-03-04T14:24:58.677Z,42.89
2018-03-04T14:26:08.404Z,42.98
2018-03-04T14:27:18.106Z,42.89
2018-03-04T14:28:28.099Z,42.98
2018-03-04T14:29:37.810Z,42.89
2018-03-04T14:30:47.768Z,42.89
2018-03-04T14:31:57.484Z,42.63
2018-03-04T14:33:06.687Z,42.7
2018-03-04T14:34:16.409Z,42.72
2018-03-04T14:35:25.863Z,42.43
2018-03-04T14:36:35.329Z,42.43
2018-03-04T14:37:45.306Z,41.5
2018-03-04T14:38:55.274Z,41.39
2018-03-04T14:40:05.249Z,41.77
2018-03-04T14:41:15.226Z,41.77
2018-03-04T14:42:25.235Z,42.05
2018-03-04T14:43:34.961Z,41.86
2018-03-04T14:44:44.949Z,42.51
2018-03-04T14:45:54.664Z,43.17
2018-03-04T14:47:04.372Z,43.27
2018-03-04T14:48:14.091Z,43.65
2018-03-04T14:49:23.811Z,43.65
2018-03-04T14:50:33.565Z,43.65
2018-03-04T14:51:43.338Z,43.93
2018-03-04T14:52:53.335Z,43.46
2018-03-04T14:54:03.421Z,43.27
2018-03-04T14:55:13.181Z,43.17
2018-03-04T14:56:22.894Z,43.36
2018-03-04T14:57:32.883Z,43.27
2018-03-04T14:58:42.331Z,43.84
2018-03-04T14:59:52.334Z,43.55
2018-03-04T15:01:01.540Z,44.12
2018-03-04T15:02:10.984Z,43.46